Wetterdaten: Woche 09.08.10 - 15.08.10 (KW32)
Datum Zeit Temperatur Luftfeuchte Luftdruck Niederschlag Wind Richtung Sonnenschein Solar Taupunkt Windchill Windben
09.08.2010 00:00 16.3 C 89 % 1018.3 hPa 0.0 l/m 0.0 km/h (0 Bft) N 0.00 h 0 W/m 14.4 C 16.3 C 0.2 km/h (0 Bft)
09.08.2010 01:00 15.5 C 91 % 1018.1 hPa 0.0 l/m 0.2 km/h (0 Bft) O-SO 0.00 h 0 W/m 14.0 C 15.5 C 0.5 km/h (0 Bft)
09.08.2010 02:00 15.0 C 91 % 1017.9 hPa 0.0 l/m 0.1 km/h (0 Bft) O-SO 0.00 h 0 W/m 13.6 C 15.0 C 0.5 km/h (0 Bft)
09.08.2010 03:00 14.4 C 93 % 1017.7 hPa 0.0 l/m 0.6 km/h (0 Bft) O-SO 0.00 h 0 W/m 13.2 C 14.4 C 1.7 km/h (1 Bft)
09.08.2010 04:00 13.4 C 95 % 1017.8 hPa 0.0 l/m 0.9 km/h (0 Bft) O-SO 0.00 h 0 W/m 12.6 C 13.4 C 2.0 km/h (1 Bft)
09.08.2010 05:00 12.9 C 96 % 1017.6 hPa 0.0 l/m 0.2 km/h (0 Bft) O-SO 0.00 h 0 W/m 12.2 C 12.9 C 0.7 km/h (0 Bft)
09.08.2010 06:00 12.4 C 96 % 1017.9 hPa 0.0 l/m 0.7 km/h (0 Bft) O-SO 0.00 h 12 W/m 11.8 C 12.4 C 1.5 km/h (1 Bft)
09.08.2010 07:00 12.9 C 96 % 1018.1 hPa 0.0 l/m 0.0 km/h (0 Bft) N 0.18 h 69 W/m 12.3 C 12.9 C 0.1 km/h (0 Bft)
09.08.2010 08:00 15.7 C 89 % 1017.8 hPa 0.0 l/m 0.1 km/h (0 Bft) O-SO 0.98 h 280 W/m 13.8 C 15.7 C 0.6 km/h (0 Bft)
09.08.2010 09:00 18.0 C 82 % 1017.6 hPa 0.0 l/m 1.1 km/h (1 Bft) N-NW 1.00 h 449 W/m 14.8 C 18.0 C 2.9 km/h (1 Bft)
09.08.2010 10:00 20.4 C 75 % 1017.2 hPa 0.0 l/m 1.7 km/h (1 Bft) NW 1.00 h 599 W/m 15.8 C 20.4 C 3.8 km/h (1 Bft)
09.08.2010 11:00 22.4 C 68 % 1016.6 hPa 0.0 l/m 1.6 km/h (1 Bft) W 1.00 h 725 W/m 16.2 C 22.4 C 3.6 km/h (1 Bft)
09.08.2010 12:00 23.7 C 60 % 1016.2 hPa 0.0 l/m 1.6 km/h (1 Bft) W-NW 1.00 h 826 W/m 15.3 C 23.7 C 3.7 km/h (1 Bft)
09.08.2010 13:00 24.3 C 58 % 1015.5 hPa 0.0 l/m 2.6 km/h (1 Bft) W-NW 0.92 h 801 W/m 15.4 C 24.3 C 5.0 km/h (1 Bft)
09.08.2010 14:00 25.1 C 54 % 1015.0 hPa 0.0 l/m 3.0 km/h (1 Bft) W 1.00 h 823 W/m 15.2 C 25.1 C 5.3 km/h (1 Bft)
09.08.2010 15:00 25.6 C 53 % 1014.5 hPa 0.0 l/m 3.3 km/h (1 Bft) O-SO 1.00 h 734 W/m 15.3 C 25.6 C 6.1 km/h (2 Bft)
09.08.2010 16:00 26.8 C 48 % 1014.1 hPa 0.0 l/m 5.1 km/h (1 Bft) W 1.00 h 618 W/m 15.0 C 26.8 C 8.2 km/h (2 Bft)
09.08.2010 17:00 27.3 C 48 % 1013.8 hPa 0.0 l/m 5.1 km/h (1 Bft) W 1.00 h 469 W/m 15.3 C 27.3 C 8.1 km/h (2 Bft)
09.08.2010 18:00 26.7 C 49 % 1013.8 hPa 0.0 l/m 5.0 km/h (1 Bft) W-NW 1.00 h 300 W/m 15.2 C 26.7 C 7.9 km/h (2 Bft)
09.08.2010 19:00 25.5 C 53 % 1013.8 hPa 0.0 l/m 4.2 km/h (1 Bft) W-NW 0.93 h 136 W/m 15.2 C 25.5 C 6.7 km/h (2 Bft)
09.08.2010 20:00 22.9 C 61 % 1014.0 hPa 0.0 l/m 1.4 km/h (1 Bft) W 0.00 h 29 W/m 14.9 C 22.9 C 2.7 km/h (1 Bft)
09.08.2010 21:00 20.4 C 71 % 1014.4 hPa 0.0 l/m 2.6 km/h (1 Bft) O 0.00 h 0 W/m 15.1 C 20.4 C 3.8 km/h (1 Bft)
09.08.2010 22:00 19.6 C 76 % 1014.8 hPa 0.0 l/m 0.8 km/h (0 Bft) O-NO 0.00 h 0 W/m 15.2 C 19.6 C 1.8 km/h (1 Bft)
09.08.2010 23:00 18.8 C 80 % 1015.1 hPa 0.0 l/m 0.1 km/h (0 Bft) O-NO 0.00 h 0 W/m 15.3 C 18.8 C 0.5 km/h (0 Bft)
10.08.2010 00:00 18.1 C 83 % 1015.2 hPa 0.0 l/m 1.2 km/h (1 Bft) O-SO 0.00 h 0 W/m 15.1 C 18.1 C 1.9 km/h (1 Bft)
10.08.2010 01:00 17.3 C 86 % 1015.5 hPa 0.0 l/m 0.5 km/h (0 Bft) O-SO 0.00 h 0 W/m 14.9 C 17.3 C 1.2 km/h (1 Bft)
10.08.2010 02:00 16.7 C 88 % 1015.5 hPa 0.0 l/m 0.7 km/h (0 Bft) O-SO 0.00 h 0 W/m 14.6 C 16.7 C 2.0 km/h (1 Bft)
10.08.2010 03:00 16.3 C 89 % 1015.4 hPa 0.0 l/m 1.8 km/h (1 Bft) O-SO 0.00 h 0 W/m 14.5 C 16.3 C 2.9 km/h (1 Bft)
10.08.2010 04:00 15.8 C 91 % 1015.4 hPa 0.0 l/m 1.2 km/h (1 Bft) O 0.00 h 0 W/m 14.2 C 15.8 C 2.5 km/h (1 Bft)
10.08.2010 05:00 15.1 C 92 % 1015.6 hPa 0.0 l/m 0.8 km/h (0 Bft) O 0.00 h 0 W/m 13.8 C 15.1 C 2.2 km/h (1 Bft)
10.08.2010 06:00 14.3 C 93 % 1015.8 hPa 0.0 l/m 0.3 km/h (0 Bft) O 0.00 h 13 W/m 13.2 C 14.3 C 1.0 km/h (0 Bft)
10.08.2010 07:00 14.5 C 94 % 1016.0 hPa 0.0 l/m 0.1 km/h (0 Bft) O 0.28 h 69 W/m 13.6 C 14.5 C 0.3 km/h (0 Bft)
10.08.2010 08:00 17.3 C 88 % 1016.2 hPa 0.0 l/m 0.0 km/h (0 Bft) N 0.88 h 259 W/m 15.2 C 17.3 C 0.7 km/h (0 Bft)
10.08.2010 09:00 19.6 C 79 % 1016.0 hPa 0.0 l/m 0.2 km/h (0 Bft) O 1.00 h 435 W/m 15.8 C 19.6 C 1.0 km/h (0 Bft)
10.08.2010 10:00 22.0 C 71 % 1015.8 hPa 0.0 l/m 0.7 km/h (0 Bft) O-SO 1.00 h 587 W/m 16.5 C 22.0 C 2.2 km/h (1 Bft)
10.08.2010 11:00 24.0 C 62 % 1015.6 hPa 0.0 l/m 0.8 km/h (0 Bft) W-NW 1.00 h 711 W/m 16.2 C 24.0 C 2.6 km/h (1 Bft)
10.08.2010 12:00 25.4 C 49 % 1015.1 hPa 0.0 l/m 1.7 km/h (1 Bft) W-NW 1.00 h 787 W/m 14.0 C 25.4 C 3.5 km/h (1 Bft)
10.08.2010 13:00 26.1 C 49 % 1014.7 hPa 0.0 l/m 3.3 km/h (1 Bft) O-SO 1.00 h 818 W/m 14.4 C 26.1 C 6.0 km/h (2 Bft)
10.08.2010 14:00 27.1 C 44 % 1014.3 hPa 0.0 l/m 4.3 km/h (1 Bft) W 1.00 h 793 W/m 13.6 C 27.1 C 7.1 km/h (2 Bft)
10.08.2010 15:00 27.4 C 44 % 1013.9 hPa 0.0 l/m 2.7 km/h (1 Bft) W 0.95 h 702 W/m 14.2 C 27.4 C 5.3 km/h (1 Bft)
10.08.2010 16:00 27.2 C 47 % 1013.5 hPa 0.0 l/m 3.9 km/h (1 Bft) W-NW 0.97 h 525 W/m 14.9 C 27.2 C 6.4 km/h (2 Bft)
10.08.2010 17:00 27.8 C 46 % 1013.1 hPa 0.0 l/m 4.5 km/h (1 Bft) W 1.00 h 431 W/m 15.2 C 27.8 C 7.4 km/h (2 Bft)
10.08.2010 18:00 25.9 C 52 % 1013.2 hPa 0.0 l/m 3.3 km/h (1 Bft) W 0.23 h 169 W/m 15.2 C 25.9 C 5.8 km/h (2 Bft)
10.08.2010 19:00 24.7 C 52 % 1013.2 hPa 0.0 l/m 4.7 km/h (1 Bft) W 0.32 h 83 W/m 14.3 C 24.7 C 7.3 km/h (2 Bft)
10.08.2010 20:00 23.2 C 60 % 1013.4 hPa 0.0 l/m 1.7 km/h (1 Bft) SO 0.60 h 47 W/m 15.0 C 23.2 C 3.0 km/h (1 Bft)
10.08.2010 21:00 21.2 C 70 % 1013.8 hPa 0.0 l/m 4.7 km/h (1 Bft) O-SO 0.00 h 0 W/m 15.5 C 21.2 C 6.2 km/h (2 Bft)
10.08.2010 22:00 20.0 C 75 % 1014.1 hPa 0.0 l/m 2.5 km/h (1 Bft) O-SO 0.00 h 0 W/m 15.5 C 20.0 C 3.5 km/h (1 Bft)
10.08.2010 23:00 19.5 C 78 % 1014.0 hPa 0.0 l/m 0.8 km/h (0 Bft) O 0.00 h 0 W/m 15.4 C 19.5 C 1.5 km/h (1 Bft)
11.08.2010 00:00 19.1 C 80 % 1014.0 hPa 0.0 l/m 1.4 km/h (1 Bft) O 0.00 h 0 W/m 15.4 C 19.1 C 2.3 km/h (1 Bft)
11.08.2010 01:00 18.6 C 83 % 1013.9 hPa 0.0 l/m 0.9 km/h (0 Bft) O 0.00 h 0 W/m 15.6 C 18.6 C 1.5 km/h (1 Bft)
11.08.2010 02:00 18.5 C 83 % 1013.9 hPa 0.0 l/m 0.2 km/h (0 Bft) O 0.00 h 0 W/m 15.5 C 18.5 C 1.3 km/h (1 Bft)
11.08.2010 03:00 18.2 C 85 % 1013.9 hPa 0.0 l/m 0.2 km/h (0 Bft) O 0.00 h 0 W/m 15.5 C 18.2 C 0.7 km/h (0 Bft)
11.08.2010 04:00 17.8 C 88 % 1013.8 hPa 0.0 l/m 0.1 km/h (0 Bft) O 0.00 h 0 W/m 15.7 C 17.8 C 0.3 km/h (0 Bft)
11.08.2010 05:00 17.5 C 89 % 1014.0 hPa 0.0 l/m 0.5 km/h (0 Bft) O 0.00 h 0 W/m 15.6 C 17.5 C 1.4 km/h (1 Bft)
11.08.2010 06:00 17.4 C 89 % 1014.4 hPa 0.0 l/m 0.2 km/h (0 Bft) O 0.00 h 12 W/m 15.7 C 17.4 C 0.8 km/h (0 Bft)
11.08.2010 07:00 17.8 C 89 % 1014.7 hPa 0.0 l/m 1.3 km/h (1 Bft) O-SO 0.00 h 48 W/m 15.9 C 17.8 C 2.7 km/h (1 Bft)
11.08.2010 08:00 19.8 C 84 % 1014.7 hPa 0.0 l/m 0.4 km/h (0 Bft) O-SO 0.33 h 197 W/m 17.0 C 19.8 C 1.4 km/h (1 Bft)
11.08.2010 09:00 20.7 C 78 % 1015.1 hPa 0.0 l/m 2.2 km/h (1 Bft) W-NW 0.00 h 209 W/m 16.8 C 20.7 C 4.3 km/h (1 Bft)
11.08.2010 10:00 21.9 C 74 % 1015.1 hPa 0.0 l/m 3.4 km/h (1 Bft) W-SW 0.48 h 373 W/m 17.0 C 21.9 C 6.1 km/h (2 Bft)
11.08.2010 11:00 22.9 C 72 % 1015.1 hPa 0.0 l/m 3.7 km/h (1 Bft) W 0.82 h 482 W/m 17.5 C 22.9 C 6.8 km/h (2 Bft)
11.08.2010 12:00 23.7 C 67 % 1014.7 hPa 0.0 l/m 5.3 km/h (1 Bft) W 0.35 h 431 W/m 17.2 C 23.7 C 9.1 km/h (2 Bft)
11.08.2010 13:00 24.5 C 66 % 1014.3 hPa 0.0 l/m 2.3 km/h (1 Bft) W-NW 0.40 h 476 W/m 17.6 C 24.5 C 4.5 km/h (1 Bft)
11.08.2010 14:00 25.7 C 60 % 1013.7 hPa 0.0 l/m 4.0 km/h (1 Bft) W 0.58 h 601 W/m 17.5 C 25.7 C 7.2 km/h (2 Bft)
11.08.2010 15:00 26.5 C 57 % 1013.2 hPa 0.0 l/m 5.6 km/h (1 Bft) W 0.77 h 615 W/m 17.3 C 26.5 C 9.1 km/h (2 Bft)
11.08.2010 16:00 24.9 C 61 % 1013.0 hPa 0.0 l/m 7.2 km/h (2 Bft) W 0.22 h 288 W/m 16.7 C 24.9 C 10.9 km/h (2 Bft)
11.08.2010 17:00 25.1 C 59 % 1012.9 hPa 0.0 l/m 6.7 km/h (2 Bft) W 0.42 h 282 W/m 16.4 C 25.1 C 10.7 km/h (2 Bft)
11.08.2010 18:00 25.1 C 58 % 1012.8 hPa 0.0 l/m 4.3 km/h (1 Bft) W-NW 0.43 h 225 W/m 16.2 C 25.1 C 7.2 km/h (2 Bft)
11.08.2010 19:00 23.9 C 60 % 1012.7 hPa 0.0 l/m 2.9 km/h (1 Bft) W-NW 0.03 h 69 W/m 15.6 C 23.9 C 4.8 km/h (1 Bft)
11.08.2010 20:00 22.5 C 65 % 1012.9 hPa 0.0 l/m 0.8 km/h (0 Bft) W 0.05 h 22 W/m 15.5 C 22.5 C 2.3 km/h (1 Bft)
11.08.2010 21:00 21.5 C 69 % 1013.1 hPa 0.0 l/m 0.3 km/h (0 Bft) W-NW 0.00 h 0 W/m 15.4 C 21.5 C 1.5 km/h (1 Bft)
11.08.2010 22:00 21.1 C 70 % 1013.2 hPa 0.0 l/m 0.7 km/h (0 Bft) W-NW 0.00 h 0 W/m 15.3 C 21.1 C 2.0 km/h (1 Bft)
11.08.2010 23:00 20.6 C 73 % 1013.2 hPa 1.6 l/m 1.5 km/h (1 Bft) W-NW 0.00 h 0 W/m 15.5 C 20.6 C 3.4 km/h (1 Bft)
12.08.2010 00:00 17.8 C 91 % 1013.1 hPa 5.4 l/m 2.1 km/h (1 Bft) O-SO 0.00 h 0 W/m 16.3 C 17.8 C 3.6 km/h (1 Bft)
12.08.2010 01:00 17.2 C 94 % 1012.9 hPa 1.6 l/m 4.0 km/h (1 Bft) O-SO 0.00 h 0 W/m 16.2 C 17.2 C 6.1 km/h (2 Bft)
12.08.2010 02:00 16.8 C 95 % 1012.7 hPa 0.6 l/m 3.8 km/h (1 Bft) O-SO 0.00 h 0 W/m 16.0 C 16.8 C 5.3 km/h (1 Bft)
12.08.2010 03:00 16.7 C 96 % 1012.4 hPa 0.0 l/m 0.4 km/h (0 Bft) SO 0.00 h 0 W/m 16.1 C 16.7 C 1.2 km/h (1 Bft)
12.08.2010 04:00 16.7 C 96 % 1011.9 hPa 0.0 l/m 1.2 km/h (1 Bft) O-SO 0.00 h 0 W/m 16.0 C 16.7 C 2.5 km/h (1 Bft)
12.08.2010 05:00 16.7 C 97 % 1011.5 hPa 0.0 l/m 0.4 km/h (0 Bft) O-SO 0.00 h 0 W/m 16.2 C 16.7 C 1.0 km/h (0 Bft)
12.08.2010 06:00 16.7 C 97 % 1011.4 hPa 0.0 l/m 0.5 km/h (0 Bft) O-SO 0.00 h 6 W/m 16.2 C 16.7 C 1.4 km/h (1 Bft)
12.08.2010 07:00 16.8 C 97 % 1011.7 hPa 1.4 l/m 0.2 km/h (0 Bft) O-SO 0.00 h 16 W/m 16.3 C 16.8 C 1.1 km/h (0 Bft)
12.08.2010 08:00 16.9 C 98 % 1012.0 hPa 2.4 l/m 0.2 km/h (0 Bft) NW 0.00 h 47 W/m 16.6 C 16.9 C 0.9 km/h (0 Bft)
12.08.2010 09:00 16.9 C 98 % 1011.9 hPa 3.2 l/m 1.1 km/h (0 Bft) O-SO 0.00 h 46 W/m 16.6 C 16.9 C 2.5 km/h (1 Bft)
12.08.2010 10:00 17.9 C 98 % 1012.2 hPa 0.2 l/m 0.2 km/h (0 Bft) W 0.08 h 261 W/m 17.5 C 17.9 C 1.3 km/h (1 Bft)
12.08.2010 11:00 18.3 C 97 % 1012.3 hPa 2.8 l/m 0.4 km/h (0 Bft) W 0.00 h 129 W/m 17.8 C 18.3 C 1.3 km/h (1 Bft)
12.08.2010 12:00 18.1 C 98 % 1012.7 hPa 0.4 l/m 3.5 km/h (1 Bft) W 0.00 h 121 W/m 17.7 C 18.1 C 6.6 km/h (2 Bft)
12.08.2010 13:00 18.1 C 97 % 1013.0 hPa 0.0 l/m 6.5 km/h (2 Bft) W 0.00 h 293 W/m 17.7 C 18.1 C 11.1 km/h (2 Bft)
12.08.2010 14:00 19.9 C 93 % 1012.9 hPa 0.0 l/m 1.8 km/h (1 Bft) W-NW 0.15 h 393 W/m 18.8 C 19.9 C 4.1 km/h (1 Bft)
12.08.2010 15:00 20.1 C 86 % 1012.9 hPa 0.0 l/m 7.1 km/h (2 Bft) W-NW 0.05 h 317 W/m 17.8 C 20.1 C 11.7 km/h (2 Bft)
12.08.2010 16:00 21.8 C 75 % 1013.3 hPa 0.0 l/m 8.8 km/h (2 Bft) W 0.82 h 588 W/m 17.1 C 21.8 C 14.5 km/h (3 Bft)
12.08.2010 17:00 22.2 C 70 % 1013.3 hPa 0.0 l/m 8.0 km/h (2 Bft) W 0.45 h 352 W/m 16.3 C 22.2 C 12.7 km/h (3 Bft)
12.08.2010 18:00 22.0 C 70 % 1013.4 hPa 0.0 l/m 6.0 km/h (2 Bft) W 0.47 h 245 W/m 16.3 C 22.0 C 9.3 km/h (2 Bft)
12.08.2010 19:00 21.6 C 71 % 1013.7 hPa 0.0 l/m 4.5 km/h (1 Bft) W 0.58 h 118 W/m 16.0 C 21.6 C 7.5 km/h (2 Bft)
12.08.2010 20:00 19.8 C 69 % 1014.4 hPa 0.0 l/m 2.9 km/h (1 Bft) W 0.10 h 17 W/m 13.9 C 19.8 C 5.2 km/h (1 Bft)
12.08.2010 21:00 19.2 C 73 % 1015.1 hPa 0.0 l/m 0.7 km/h (0 Bft) S 0.00 h 0 W/m 14.3 C 19.2 C 2.1 km/h (1 Bft)
12.08.2010 22:00 18.2 C 83 % 1015.6 hPa 0.0 l/m 0.7 km/h (0 Bft) S-SO 0.00 h 0 W/m 15.3 C 18.2 C 2.1 km/h (1 Bft)
12.08.2010 23:00 17.2 C 89 % 1016.0 hPa 0.0 l/m 0.6 km/h (0 Bft) S-SO 0.00 h 0 W/m 15.3 C 17.2 C 1.7 km/h (1 Bft)
13.08.2010 00:00 16.3 C 92 % 1016.3 hPa 0.0 l/m 0.7 km/h (0 Bft) O 0.00 h 0 W/m 15.0 C 16.3 C 1.6 km/h (1 Bft)
13.08.2010 01:00 15.8 C 93 % 1016.2 hPa 0.0 l/m 0.7 km/h (0 Bft) SO 0.00 h 0 W/m 14.8 C 15.8 C 1.4 km/h (1 Bft)
13.08.2010 02:00 15.2 C 94 % 1015.7 hPa 0.0 l/m 0.1 km/h (0 Bft) S-SO 0.00 h 0 W/m 14.2 C 15.2 C 0.4 km/h (0 Bft)
13.08.2010 03:00 14.8 C 92 % 1015.6 hPa 0.0 l/m 0.0 km/h (0 Bft) N 0.00 h 0 W/m 13.5 C 14.8 C 0.1 km/h (0 Bft)
13.08.2010 04:00 14.1 C 95 % 1015.4 hPa 0.0 l/m 0.3 km/h (0 Bft) N-NW 0.00 h 0 W/m 13.2 C 14.1 C 1.0 km/h (0 Bft)
13.08.2010 05:00 14.2 C 95 % 1015.3 hPa 0.0 l/m 0.0 km/h (0 Bft) N-NW 0.00 h 0 W/m 13.4 C 14.2 C 0.3 km/h (0 Bft)
13.08.2010 06:00 14.1 C 94 % 1015.3 hPa 0.0 l/m 0.9 km/h (0 Bft) W 0.00 h 14 W/m 13.1 C 14.1 C 3.0 km/h (1 Bft)
13.08.2010 07:00 14.2 C 94 % 1015.3 hPa 0.0 l/m 0.3 km/h (0 Bft) NW 0.00 h 52 W/m 13.2 C 14.2 C 1.1 km/h (1 Bft)
13.08.2010 08:00 14.8 C 92 % 1015.8 hPa 0.0 l/m 0.6 km/h (0 Bft) NW 0.00 h 73 W/m 13.5 C 14.8 C 1.8 km/h (1 Bft)
13.08.2010 09:00 16.1 C 87 % 1015.8 hPa 0.0 l/m 1.8 km/h (1 Bft) N-NW 0.42 h 284 W/m 13.9 C 16.1 C 4.1 km/h (1 Bft)
13.08.2010 10:00 17.9 C 82 % 1015.7 hPa 0.0 l/m 1.5 km/h (1 Bft) N 0.45 h 340 W/m 14.7 C 17.9 C 3.5 km/h (1 Bft)
13.08.2010 11:00 19.5 C 77 % 1015.6 hPa 0.0 l/m 1.3 km/h (1 Bft) W 0.85 h 493 W/m 15.4 C 19.5 C 3.4 km/h (1 Bft)
13.08.2010 12:00 20.7 C 70 % 1014.9 hPa 0.0 l/m 1.6 km/h (1 Bft) W-SW 0.58 h 550 W/m 15.1 C 20.7 C 3.4 km/h (1 Bft)
13.08.2010 13:00 22.2 C 59 % 1014.4 hPa 0.0 l/m 1.9 km/h (1 Bft) W-NW 1.00 h 718 W/m 13.9 C 22.2 C 3.9 km/h (1 Bft)
13.08.2010 14:00 22.4 C 58 % 1014.3 hPa 0.0 l/m 1.7 km/h (1 Bft) S-SO 0.82 h 610 W/m 13.8 C 22.4 C 4.1 km/h (1 Bft)
13.08.2010 15:00 22.3 C 58 % 1014.3 hPa 0.0 l/m 1.4 km/h (1 Bft) SO 0.33 h 399 W/m 13.6 C 22.3 C 3.4 km/h (1 Bft)
13.08.2010 16:00 22.6 C 57 % 1014.4 hPa 0.0 l/m 3.1 km/h (1 Bft) W 0.47 h 432 W/m 13.7 C 22.6 C 5.8 km/h (2 Bft)
13.08.2010 17:00 22.8 C 57 % 1014.2 hPa 0.0 l/m 3.8 km/h (1 Bft) W-NW 0.55 h 347 W/m 13.8 C 22.8 C 6.2 km/h (2 Bft)
13.08.2010 18:00 22.4 C 56 % 1014.1 hPa 0.0 l/m 1.4 km/h (1 Bft) W-NW 0.42 h 199 W/m 13.1 C 22.4 C 2.8 km/h (1 Bft)
13.08.2010 19:00 20.7 C 66 % 1014.2 hPa 0.0 l/m 1.3 km/h (1 Bft) W-NW 0.02 h 56 W/m 14.0 C 20.7 C 2.4 km/h (1 Bft)
13.08.2010 20:00 19.0 C 75 % 1014.2 hPa 0.0 l/m 1.5 km/h (1 Bft) O-SO 0.10 h 22 W/m 14.3 C 19.0 C 2.8 km/h (1 Bft)
13.08.2010 21:00 17.7 C 81 % 1014.6 hPa 0.0 l/m 1.6 km/h (1 Bft) O 0.00 h 0 W/m 14.4 C 17.7 C 2.7 km/h (1 Bft)
13.08.2010 22:00 16.4 C 88 % 1014.9 hPa 0.0 l/m 1.3 km/h (1 Bft) O-SO 0.00 h 0 W/m 14.4 C 16.4 C 2.4 km/h (1 Bft)
13.08.2010 23:00 15.8 C 90 % 1014.9 hPa 0.0 l/m 0.3 km/h (0 Bft) O-NO 0.00 h 0 W/m 14.2 C 15.8 C 0.7 km/h (0 Bft)
14.08.2010 00:00 15.5 C 91 % 1015.0 hPa 0.0 l/m 0.1 km/h (0 Bft) O-NO 0.00 h 0 W/m 14.0 C 15.5 C 0.5 km/h (0 Bft)
14.08.2010 01:00 14.5 C 94 % 1014.7 hPa 0.0 l/m 0.6 km/h (0 Bft) O-NO 0.00 h 0 W/m 13.6 C 14.5 C 1.4 km/h (1 Bft)
14.08.2010 02:00 14.0 C 95 % 1014.6 hPa 0.0 l/m 0.3 km/h (0 Bft) O-NO 0.00 h 0 W/m 13.2 C 14.0 C 1.0 km/h (0 Bft)
14.08.2010 03:00 13.9 C 95 % 1014.8 hPa 0.0 l/m 0.3 km/h (0 Bft) O-NO 0.00 h 0 W/m 13.1 C 13.9 C 0.8 km/h (0 Bft)
14.08.2010 04:00 13.9 C 96 % 1014.5 hPa 0.0 l/m 0.0 km/h (0 Bft) N 0.00 h 0 W/m 13.2 C 13.9 C 0.0 km/h (0 Bft)
14.08.2010 05:00 13.6 C 96 % 1014.4 hPa 0.0 l/m 0.3 km/h (0 Bft) NO 0.00 h 0 W/m 13.0 C 13.6 C 0.8 km/h (0 Bft)
14.08.2010 06:00 13.4 C 97 % 1014.4 hPa 0.0 l/m 1.3 km/h (1 Bft) NW 0.05 h 19 W/m 12.9 C 13.4 C 2.7 km/h (1 Bft)
14.08.2010 07:00 13.9 C 96 % 1014.7 hPa 0.0 l/m 0.2 km/h (0 Bft) W-NW 0.07 h 65 W/m 13.3 C 13.9 C 1.3 km/h (1 Bft)
14.08.2010 08:00 16.0 C 91 % 1014.7 hPa 0.0 l/m 0.8 km/h (0 Bft) W-NW 0.75 h 255 W/m 14.4 C 16.0 C 2.0 km/h (1 Bft)
14.08.2010 09:00 17.1 C 86 % 1014.4 hPa 0.0 l/m 1.7 km/h (1 Bft) N-NW 0.47 h 306 W/m 14.7 C 17.1 C 3.6 km/h (1 Bft)
14.08.2010 10:00 18.2 C 82 % 1014.0 hPa 0.0 l/m 2.4 km/h (1 Bft) O-SO 0.35 h 319 W/m 15.1 C 18.2 C 4.6 km/h (1 Bft)
14.08.2010 11:00 19.9 C 77 % 1014.0 hPa 0.0 l/m 1.9 km/h (1 Bft) O-SO 0.63 h 480 W/m 15.8 C 19.9 C 4.3 km/h (1 Bft)
14.08.2010 12:00 21.2 C 71 % 1013.8 hPa 0.0 l/m 6.8 km/h (2 Bft) O-SO 0.62 h 625 W/m 15.8 C 21.2 C 11.0 km/h (2 Bft)
14.08.2010 13:00 21.8 C 69 % 1013.1 hPa 0.0 l/m 4.6 km/h (1 Bft) O-SO 0.38 h 481 W/m 15.8 C 21.8 C 8.4 km/h (2 Bft)
14.08.2010 14:00 22.0 C 67 % 1012.5 hPa 0.0 l/m 3.3 km/h (1 Bft) O-SO 0.30 h 407 W/m 15.5 C 22.0 C 6.9 km/h (2 Bft)
14.08.2010 15:00 22.0 C 66 % 1011.9 hPa 0.0 l/m 4.9 km/h (1 Bft) O-SO 0.05 h 316 W/m 15.3 C 22.0 C 9.4 km/h (2 Bft)
14.08.2010 16:00 20.9 C 70 % 1012.0 hPa 0.0 l/m 5.9 km/h (2 Bft) O-SO 0.00 h 138 W/m 15.2 C 20.9 C 10.0 km/h (2 Bft)
14.08.2010 17:00 19.8 C 75 % 1012.0 hPa 0.0 l/m 3.1 km/h (1 Bft) N 0.00 h 110 W/m 15.3 C 19.8 C 6.9 km/h (2 Bft)
14.08.2010 18:00 19.3 C 79 % 1011.2 hPa 0.0 l/m 0.7 km/h (0 Bft) NO 0.00 h 79 W/m 15.5 C 19.3 C 2.5 km/h (1 Bft)
14.08.2010 19:00 18.5 C 83 % 1010.9 hPa 0.4 l/m 0.4 km/h (0 Bft) O-SO 0.00 h 21 W/m 15.5 C 18.5 C 1.3 km/h (1 Bft)
14.08.2010 20:00 16.9 C 93 % 1010.3 hPa 2.6 l/m 0.1 km/h (0 Bft) O-SO 0.00 h 5 W/m 15.9 C 16.9 C 0.6 km/h (0 Bft)
14.08.2010 21:00 16.5 C 97 % 1009.5 hPa 4.6 l/m 0.5 km/h (0 Bft) N 0.00 h 0 W/m 16.0 C 16.5 C 1.3 km/h (1 Bft)
14.08.2010 22:00 16.2 C 98 % 1008.9 hPa 4.2 l/m 0.4 km/h (0 Bft) N 0.00 h 0 W/m 15.9 C 16.2 C 1.4 km/h (1 Bft)
14.08.2010 23:00 16.3 C 98 % 1008.2 hPa 7.4 l/m 0.0 km/h (0 Bft) N 0.00 h 0 W/m 16.0 C 16.3 C 0.3 km/h (0 Bft)
15.08.2010 00:00 16.2 C 98 % 1007.5 hPa 7.8 l/m 0.2 km/h (0 Bft) O-SO 0.00 h 0 W/m 15.9 C 16.2 C 0.6 km/h (0 Bft)
15.08.2010 01:00 16.2 C 99 % 1007.3 hPa 4.2 l/m 0.0 km/h (0 Bft) O-SO 0.00 h 0 W/m 16.0 C 16.2 C 0.3 km/h (0 Bft)
15.08.2010 02:00 15.4 C 98 % 1007.4 hPa 0.8 l/m 5.9 km/h (2 Bft) S-SO 0.00 h 0 W/m 15.1 C 15.4 C 12.0 km/h (2 Bft)
15.08.2010 03:00 14.8 C 96 % 1007.9 hPa 0.2 l/m 4.1 km/h (1 Bft) S-SO 0.00 h 0 W/m 14.1 C 14.8 C 8.2 km/h (2 Bft)
15.08.2010 04:00 14.6 C 95 % 1008.2 hPa 0.0 l/m 3.6 km/h (1 Bft) W-SW 0.00 h 0 W/m 13.9 C 14.6 C 7.8 km/h (2 Bft)
15.08.2010 05:00 14.5 C 93 % 1007.9 hPa 0.0 l/m 7.3 km/h (2 Bft) S-SO 0.00 h 0 W/m 13.4 C 14.5 C 15.0 km/h (3 Bft)
15.08.2010 06:00 14.5 C 92 % 1008.5 hPa 0.0 l/m 6.0 km/h (2 Bft) S-SO 0.00 h 8 W/m 13.2 C 14.5 C 11.6 km/h (2 Bft)
15.08.2010 07:00 14.9 C 88 % 1009.0 hPa 0.0 l/m 4.9 km/h (1 Bft) S-SO 0.00 h 23 W/m 13.0 C 14.9 C 10.3 km/h (2 Bft)
15.08.2010 08:00 15.3 C 87 % 1009.6 hPa 0.0 l/m 7.6 km/h (2 Bft) S 0.02 h 88 W/m 13.1 C 15.3 C 16.0 km/h (3 Bft)
15.08.2010 09:00 15.9 C 87 % 1010.2 hPa 0.0 l/m 8.6 km/h (2 Bft) SW 0.07 h 185 W/m 13.6 C 15.9 C 16.3 km/h (3 Bft)
15.08.2010 10:00 15.4 C 90 % 1011.2 hPa 0.2 l/m 5.6 km/h (1 Bft) S 0.00 h 84 W/m 13.7 C 15.4 C 11.4 km/h (2 Bft)
15.08.2010 11:00 15.2 C 95 % 1012.1 hPa 0.8 l/m 2.3 km/h (1 Bft) S 0.00 h 112 W/m 14.4 C 15.2 C 5.6 km/h (1 Bft)
15.08.2010 12:00 15.7 C 96 % 1012.6 hPa 0.2 l/m 1.7 km/h (1 Bft) W-SW 0.00 h 178 W/m 15.1 C 15.7 C 4.2 km/h (1 Bft)
15.08.2010 13:00 16.3 C 96 % 1013.0 hPa 0.2 l/m 3.5 km/h (1 Bft) W 0.00 h 267 W/m 15.6 C 16.3 C 6.2 km/h (2 Bft)
15.08.2010 14:00 16.6 C 92 % 1013.2 hPa 0.0 l/m 6.0 km/h (2 Bft) W 0.32 h 390 W/m 15.4 C 16.6 C 9.5 km/h (2 Bft)
15.08.2010 15:00 17.7 C 83 % 1013.0 hPa 0.0 l/m 9.6 km/h (2 Bft) W 0.45 h 391 W/m 14.9 C 17.7 C 15.2 km/h (3 Bft)
15.08.2010 16:00 18.2 C 78 % 1013.5 hPa 0.0 l/m 12.3 km/h (3 Bft) W 0.42 h 429 W/m 14.3 C 18.2 C 19.3 km/h (3 Bft)
15.08.2010 17:00 18.8 C 73 % 1013.2 hPa 0.0 l/m 12.8 km/h (3 Bft) W 0.60 h 399 W/m 13.9 C 18.8 C 19.9 km/h (4 Bft)
15.08.2010 18:00 16.7 C 84 % 1013.7 hPa 0.4 l/m 4.2 km/h (1 Bft) S-SO 0.07 h 95 W/m 14.0 C 16.7 C 7.4 km/h (2 Bft)
15.08.2010 19:00 15.6 C 93 % 1013.9 hPa 3.4 l/m 1.2 km/h (1 Bft) S-SO 0.00 h 26 W/m 14.5 C 15.6 C 2.8 km/h (1 Bft)
15.08.2010 20:00 15.2 C 95 % 1013.8 hPa 0.6 l/m 1.9 km/h (1 Bft) SO 0.20 h 22 W/m 14.4 C 15.2 C 3.8 km/h (1 Bft)
15.08.2010 21:00 14.8 C 96 % 1014.2 hPa 0.2 l/m 3.1 km/h (1 Bft) S-SO 0.00 h 0 W/m 14.1 C 14.8 C 5.6 km/h (1 Bft)
15.08.2010 22:00 14.3 C 95 % 1014.5 hPa 0.0 l/m 2.6 km/h (1 Bft) S-SO 0.00 h 0 W/m 13.5 C 14.3 C 5.5 km/h (1 Bft)
15.08.2010 23:00 13.6 C 92 % 1014.5 hPa 0.0 l/m 4.5 km/h (1 Bft) S-SO 0.00 h 0 W/m 12.4 C 13.6 C 8.8 km/h (2 Bft)
Min-Datum _ 09.08.10 10.08.10 15.08.10 - 09.08.10 - - - 09.08.10 09.08.10 09.08.10
_ Min-Zeit 06:39 15:04 02:00 - 00:00 - - - 05:55 06:39 00:00
Minimum _ 12.2 C 39 % 1006.9 hPa - 0.0 km/h (0 Bft) - - - 11.5 C 12.2 C 0.0 km/h (0 Bft)
Max-Datum _ 10.08.10 12.08.10 09.08.10 15.08.10 15.08.10 - 09.08.10 14.08.10 12.08.10 10.08.10 15.08.10
_ Max-Zeit 17:31 08:41 00:00 00:15 17:23 - 07:42 12:15 14:38 17:31 17:25
Maximum _ 28.3 C 100 % 1018.5 hPa 7.8 l/m 23.2 km/h
W (4 Bft)
- 0.02 h 1011 W/m 20.0 C 28.3 C 31.3 km/h
W-NW (5 Bft)
Durchschnitt _ 18.8 C 80 % 1013.8 hPa #57.8 l/m 2.4 km/h (1 Bft) W #42:38 h 300 W/m 15.0 C 18.8 C 4.5 km/h (1 Bft)
© Kaiko 2010